Time;durP1;ratioP1;P1;durP2;ratioP2;P2;SDS_P1;SDS_P2;PMS_P1;PMS_P2;Temp;Humidity;BMP_temperature;BMP_pressure;BME280_temperature;BME280_humidity;BME280_pressure;Samples;Min_cycle;Max_cycle;Signal;HPM_P1;HPM_P2
2022/04/02 00:01:21;;;;;;;1999.90;999.90;;;1.80;99.90;;;;;;5014976;28;20216;-71
2022/04/02 00:03:47;;;;;;;1999.90;999.90;;;1.80;99.90;;;;;;5014854;28;20735;-71
2022/04/02 00:06:13;;;;;;;1999.90;999.90;;;1.80;99.90;;;;;;5014658;28;20200;-71
2022/04/02 00:08:38;;;;;;;1999.90;999.90;;;1.80;99.90;;;;;;5014936;28;20205;-71
2022/04/02 00:11:04;;;;;;;1999.90;999.90;;;1.80;99.90;;;;;;5014772;28;20711;-71
2022/04/02 00:13:34;;;;;;;1999.90;999.90;;;1.80;99.90;;;;;;5014786;28;20235;-71
2022/04/02 00:16:00;;;;;;;1999.90;999.90;;;1.80;99.90;;;;;;5014451;28;20412;-71
2022/04/02 00:18:26;;;;;;;1999.90;999.90;;;1.80;99.90;;;;;;5014686;28;20176;-71
2022/04/02 00:20:52;;;;;;;1999.90;999.90;;;1.80;99.90;;;;;;5014386;28;20235;-71
2022/04/02 00:23:36;;;;;;;1999.90;999.90;;;1.80;99.90;;;;;;5014558;28;20201;-71
2022/04/02 00:26:07;;;;;;;1999.90;999.90;;;1.80;99.90;;;;;;5014303;28;20166;-71
2022/04/02 00:28:34;;;;;;;1999.90;999.90;;;1.70;99.90;;;;;;5014496;28;20256;-71
2022/04/02 00:31:00;;;;;;;1999.90;999.90;;;1.80;99.90;;;;;;5014524;28;20204;-71
2022/04/02 00:33:26;;;;;;;1999.90;999.90;;;1.80;99.90;;;;;;5014348;28;20662;-69
2022/04/02 00:35:51;;;;;;;1999.90;999.90;;;1.80;99.90;;;;;;5014152;28;20645;-68
2022/04/02 00:38:17;;;;;;;1999.90;999.90;;;1.80;99.90;;;;;;5014328;28;20177;-68
2022/04/02 00:40:42;;;;;;;1999.90;999.90;;;1.80;99.90;;;;;;5014158;28;20708;-68
2022/04/02 00:43:23;;;;;;;1999.90;999.90;;;1.80;99.90;;;;;;5012922;28;20209;-68
2022/04/02 00:45:51;;;;;;;1999.90;999.90;;;1.80;99.90;;;;;;5013866;28;20606;-69
2022/04/02 00:48:18;;;;;;;1999.90;999.90;;;1.80;99.90;;;;;;5014102;28;20169;-68
2022/04/02 00:50:45;;;;;;;1999.90;999.90;;;1.80;99.90;;;;;;5014020;28;20296;-68
2022/04/02 00:53:12;;;;;;;1999.90;999.90;;;1.70;99.90;;;;;;5013955;28;20227;-68
2022/04/02 00:55:40;;;;;;;1999.90;999.90;;;1.70;99.90;;;;;;5012823;28;20170;-69
2022/04/02 00:58:07;;;;;;;1999.90;999.90;;;1.70;99.90;;;;;;5014394;28;20259;-68
2022/04/02 01:00:34;;;;;;;1999.90;999.90;;;1.80;99.90;;;;;;5014489;28;20184;-68
2022/04/02 01:03:00;;;;;;;1999.90;999.90;;;1.80;99.90;;;;;;5013904;28;20212;-69
2022/04/02 01:05:26;;;;;;;1999.90;999.90;;;1.80;99.90;;;;;;5013553;28;20167;-69
2022/04/02 01:07:52;;;;;;;1999.90;999.90;;;1.80;99.90;;;;;;5013763;28;20423;-69
2022/04/02 01:10:17;;;;;;;1999.90;999.90;;;1.80;99.90;;;;;;5013646;28;20169;-69
2022/04/02 01:12:46;;;;;;;1999.90;999.90;;;1.80;99.90;;;;;;5013559;28;20428;-69
2022/04/02 01:15:12;;;;;;;1999.90;999.90;;;1.80;99.90;;;;;;5013574;28;20267;-69
2022/04/02 01:17:40;;;;;;;1999.90;999.90;;;1.80;99.90;;;;;;5013740;28;20212;-69
2022/04/02 01:20:09;;;;;;;1999.90;999.90;;;1.80;99.90;;;;;;5013688;28;20196;-69
2022/04/02 01:22:35;;;;;;;1999.90;999.90;;;1.80;99.90;;;;;;5013320;28;20585;-68
2022/04/02 01:25:01;;;;;;;1999.90;999.90;;;1.80;99.90;;;;;;5013229;28;20545;-69
2022/04/02 01:27:26;;;;;;;1999.90;999.90;;;1.80;99.90;;;;;;5012246;28;20169;-68
2022/04/02 01:29:52;;;;;;;1999.90;999.90;;;1.80;99.90;;;;;;5013585;28;20256;-68
2022/04/02 01:32:17;;;;;;;1999.90;999.90;;;1.70;99.90;;;;;;5013214;28;20230;-68
2022/04/02 01:34:43;;;;;;;1999.90;999.90;;;1.70;99.90;;;;;;5011811;28;20180;-68
2022/04/02 01:37:12;;;;;;;1999.90;999.90;;;1.70;99.90;;;;;;5013225;28;20173;-68
2022/04/02 01:39:38;;;;;;;1999.90;999.90;;;1.80;99.90;;;;;;5013181;28;20307;-68
2022/04/02 01:42:06;;;;;;;1999.90;999.90;;;1.70;99.90;;;;;;5012975;28;20662;-68
2022/04/02 01:44:32;;;;;;;1999.90;999.90;;;1.70;99.90;;;;;;5012957;28;20157;-68
2022/04/02 01:46:58;;;;;;;1999.90;999.90;;;1.60;99.90;;;;;;5013095;28;20172;-68
2022/04/02 01:49:23;;;;;;;1999.90;999.90;;;1.60;99.90;;;;;;5013042;28;20169;-68
2022/04/02 01:51:49;;;;;;;1999.90;999.90;;;1.60;99.90;;;;;;5012864;28;20231;-68
2022/04/02 01:54:16;;;;;;;1999.90;999.90;;;1.70;99.90;;;;;;5012602;28;20758;-68
2022/04/02 01:56:42;;;;;;;1999.90;999.90;;;1.70;99.90;;;;;;5012875;28;20176;-68
2022/04/02 01:59:08;;;;;;;1999.90;999.90;;;1.70;99.90;;;;;;5012917;28;20169;-68
2022/04/02 02:01:34;;;;;;;1999.90;999.90;;;1.70;99.90;;;;;;5012701;28;20193;-68
2022/04/02 02:03:59;;;;;;;1999.90;999.90;;;1.70;99.90;;;;;;5012543;28;20169;-68
2022/04/02 02:06:25;;;;;;;1999.90;999.90;;;1.70;99.90;;;;;;5012651;28;20173;-69
2022/04/02 02:08:50;;;;;;;1999.90;999.90;;;1.70;99.90;;;;;;5012562;28;20260;-68
2022/04/02 02:11:16;;;;;;;1999.90;999.90;;;1.60;99.90;;;;;;5012514;28;20196;-68
2022/04/02 02:13:41;;;;;;;1999.90;999.90;;;1.60;99.90;;;;;;5012545;28;20626;-68
2022/04/02 02:16:08;;;;;;;1999.90;999.90;;;1.60;99.90;;;;;;5012355;28;20173;-69
2022/04/02 02:18:33;;;;;;;1999.90;999.90;;;1.60;99.90;;;;;;5012546;28;20642;-69
2022/04/02 02:21:02;;;;;;;1999.90;999.90;;;1.60;99.90;;;;;;5012850;28;20197;-68
2022/04/02 02:23:28;;;;;;;1999.90;999.90;;;1.60;99.90;;;;;;5012368;28;20185;-69
2022/04/02 02:25:54;;;;;;;1999.90;999.90;;;1.60;99.90;;;;;;5012108;28;20188;-69
2022/04/02 02:28:19;;;;;;;1999.90;999.90;;;1.60;99.90;;;;;;5012451;28;20169;-71
2022/04/02 02:30:45;;;;;;;1999.90;999.90;;;1.60;99.90;;;;;;5012342;28;20565;-71
2022/04/02 02:35:55;;;;;;;1999.90;999.90;;;1.60;99.90;;;;;;5012137;28;20223;-71
2022/04/02 02:38:21;;;;;;;1999.90;999.90;;;1.60;99.90;;;;;;5012217;28;20172;-71
2022/04/02 02:40:48;;;;;;;1999.90;999.90;;;1.60;99.90;;;;;;5012220;28;20169;-71
2022/04/02 02:43:15;;;;;;;1999.90;999.90;;;1.60;99.90;;;;;;5012176;28;20211;-71
2022/04/02 02:45:41;;;;;;;1999.90;999.90;;;1.60;99.90;;;;;;5011962;28;20161;-71
2022/04/02 02:48:07;;;;;;;1999.90;999.90;;;1.60;99.90;;;;;;5012266;28;20176;-71
2022/04/02 02:50:33;;;;;;;1999.90;999.90;;;1.60;99.90;;;;;;5012148;28;20396;-71
2022/04/02 02:52:59;;;;;;;1999.90;999.90;;;1.70;99.90;;;;;;5012065;28;20424;-72
2022/04/02 02:55:25;;;;;;;1999.90;999.90;;;1.60;99.90;;;;;;5011870;28;20542;-72
2022/04/02 02:57:51;;;;;;;1999.90;999.90;;;1.60;99.90;;;;;;5012157;28;20177;-72
2022/04/02 03:00:17;;;;;;;1999.90;999.90;;;1.60;99.90;;;;;;5012117;28;20173;-71
2022/04/02 03:02:43;;;;;;;1999.90;999.90;;;1.60;99.90;;;;;;5011888;28;20211;-71
2022/04/02 03:05:13;;;;;;;1999.90;999.90;;;1.70;99.90;;;;;;5011771;28;20169;-72
2022/04/02 03:07:48;;;;;;;1999.90;999.90;;;1.80;99.90;;;;;;5011960;28;20514;-71
2022/04/02 03:10:16;;;;;;;1999.90;999.90;;;1.80;99.90;;;;;;5012084;28;20183;-71
2022/04/02 03:12:41;;;;;;;1999.90;999.90;;;1.70;99.90;;;;;;5011912;28;20654;-71
2022/04/02 03:15:07;;;;;;;1999.90;999.90;;;1.70;99.90;;;;;;5011735;28;20184;-71
2022/04/02 03:17:33;;;;;;;1999.90;999.90;;;1.70;99.90;;;;;;5011969;28;20408;-71
2022/04/02 03:20:00;;;;;;;1999.90;999.90;;;1.70;99.90;;;;;;5014222;28;20177;-72
2022/04/02 03:22:27;;;;;;;1999.90;999.90;;;1.70;99.90;;;;;;5016396;28;20216;-71
2022/04/02 03:24:53;;;;;;;1999.90;999.90;;;1.70;99.90;;;;;;5015385;28;20173;-71
2022/04/02 03:27:19;;;;;;;1999.90;999.90;;;1.70;99.90;;;;;;5014400;28;20173;-71
2022/04/02 03:29:45;;;;;;;1999.90;999.90;;;1.70;99.90;;;;;;5015686;28;20541;-71
2022/04/02 03:32:10;;;;;;;1999.90;999.90;;;1.70;99.90;;;;;;5015541;28;20195;-71
2022/04/02 03:34:36;;;;;;;1999.90;999.90;;;1.70;99.90;;;;;;5015194;28;20165;-71
2022/04/02 03:37:02;;;;;;;1999.90;999.90;;;1.80;99.90;;;;;;5015441;28;20720;-71
2022/04/02 03:39:27;;;;;;;1999.90;999.90;;;1.80;99.90;;;;;;5015399;28;20176;-71
2022/04/02 03:41:54;;;;;;;1999.90;999.90;;;1.70;99.90;;;;;;5015219;28;20561;-71
2022/04/02 03:44:19;;;;;;;1999.90;999.90;;;1.70;99.90;;;;;;5015099;28;20158;-71
2022/04/02 03:49:29;;;;;;;1999.90;999.90;;;1.80;99.90;;;;;;5015271;28;20269;-71
2022/04/02 03:51:55;;;;;;;1999.90;999.90;;;1.90;99.90;;;;;;5015106;28;20267;-71
2022/04/02 03:54:21;;;;;;;1999.90;999.90;;;1.90;99.90;;;;;;5014933;28;20216;-71
2022/04/02 03:56:47;;;;;;;1999.90;999.90;;;2.00;99.90;;;;;;5015127;28;20496;-71
2022/04/02 03:59:13;;;;;;;1999.90;999.90;;;2.00;99.90;;;;;;5015099;28;20408;-71
2022/04/02 04:01:39;;;;;;;1999.90;999.90;;;2.00;99.90;;;;;;5014823;28;20423;-71
2022/04/02 04:04:05;;;;;;;1999.90;999.90;;;2.00;99.90;;;;;;5014696;28;20170;-71
2022/04/02 04:06:34;;;;;;;1999.90;999.90;;;2.10;99.90;;;;;;5014911;28;20173;-71
2022/04/02 04:09:00;;;;;;;1999.90;999.90;;;2.10;99.90;;;;;;5014897;28;20514;-71
2022/04/02 04:11:26;;;;;;;1999.90;999.90;;;2.10;99.90;;;;;;5014777;28;20196;-71
2022/04/02 04:13:53;;;;;;;1999.90;999.90;;;2.10;99.90;;;;;;5014766;28;20412;-71
2022/04/02 04:16:19;;;;;;;1999.90;999.90;;;2.00;99.90;;;;;;5014467;28;20168;-71
2022/04/02 04:18:45;;;;;;;1999.90;999.90;;;2.00;99.90;;;;;;5014721;28;20173;-71
2022/04/02 04:21:14;;;;;;;1999.90;999.90;;;2.00;99.90;;;;;;5014508;28;20447;-71
2022/04/02 04:23:40;;;;;;;1999.90;999.90;;;1.90;99.90;;;;;;5014600;28;20203;-71
2022/04/02 04:26:06;;;;;;;1999.90;999.90;;;1.90;99.90;;;;;;5014317;28;20553;-71
2022/04/02 04:28:31;;;;;;;1999.90;999.90;;;1.80;99.90;;;;;;5014573;28;20408;-71
2022/04/02 04:30:57;;;;;;;1999.90;999.90;;;1.80;99.90;;;;;;5013187;28;20782;-71
2022/04/02 04:33:22;;;;;;;1999.90;999.90;;;1.80;99.90;;;;;;5014457;28;20165;-71
2022/04/02 04:35:48;;;;;;;1999.90;999.90;;;1.70;99.90;;;;;;5014021;28;20195;-71
2022/04/02 04:38:14;;;;;;;1999.90;999.90;;;1.70;99.90;;;;;;5014456;28;20633;-71
2022/04/02 04:40:39;;;;;;;1999.90;999.90;;;1.80;99.90;;;;;;5014156;28;20710;-71
2022/04/02 04:43:07;;;;;;;1999.90;999.90;;;1.70;99.90;;;;;;5014201;28;20211;-71
2022/04/02 04:45:32;;;;;;;1999.90;999.90;;;1.70;99.90;;;;;;5013909;28;20193;-71
2022/04/02 04:47:59;;;;;;;1999.90;999.90;;;1.60;99.90;;;;;;5014146;28;20205;-71
2022/04/02 04:50:26;;;;;;;1999.90;999.90;;;1.60;99.90;;;;;;5014051;28;20529;-71
2022/04/02 04:52:52;;;;;;;1999.90;999.90;;;1.60;99.90;;;;;;5014002;28;20266;-71
2022/04/02 04:55:18;;;;;;;1999.90;999.90;;;1.50;99.90;;;;;;5013719;28;20204;-71
2022/04/02 04:57:44;;;;;;;1999.90;999.90;;;1.40;99.90;;;;;;5013932;28;20466;-71
2022/04/02 05:00:10;;;;;;;1999.90;999.90;;;1.40;99.90;;;;;;5013960;28;20647;-71
2022/04/02 05:02:35;;;;;;;1999.90;999.90;;;1.40;99.90;;;;;;5013665;28;20226;-71
2022/04/02 05:05:01;;;;;;;1999.90;999.90;;;1.30;99.90;;;;;;5013524;28;20255;-71
2022/04/02 05:07:28;;;;;;;1999.90;999.90;;;1.40;99.90;;;;;;5013717;28;20169;-71
2022/04/02 05:09:54;;;;;;;1999.90;999.90;;;1.40;99.90;;;;;;5013808;28;20702;-71
2022/04/02 05:12:20;;;;;;;1999.90;999.90;;;1.50;99.90;;;;;;5013512;28;20288;-71
2022/04/02 05:14:47;;;;;;;1999.90;999.90;;;1.50;99.90;;;;;;5013386;28;20419;-71
2022/04/02 05:17:13;;;;;;;1999.90;999.90;;;1.60;99.90;;;;;;5013734;28;20442;-71
2022/04/02 05:19:38;;;;;;;1999.90;999.90;;;1.60;99.90;;;;;;5013483;28;20177;-71
2022/04/02 05:22:04;;;;;;;1999.90;999.90;;;1.70;99.90;;;;;;5013233;28;20201;-71
2022/04/02 05:24:30;;;;;;;1999.90;999.90;;;1.70;99.90;;;;;;5013210;28;20172;-71
2022/04/02 05:26:56;;;;;;;1999.90;999.90;;;1.70;99.90;;;;;;5013402;28;20220;-71
2022/04/02 05:29:21;;;;;;;1999.90;999.90;;;1.70;99.90;;;;;;5013484;28;20181;-71
2022/04/02 05:31:48;;;;;;;1999.90;999.90;;;1.60;99.90;;;;;;5013399;28;20188;-71
2022/04/02 05:34:14;;;;;;;1999.90;999.90;;;1.60;99.90;;;;;;5013098;28;20192;-71
2022/04/02 05:36:41;;;;;;;1999.90;999.90;;;1.60;99.90;;;;;;5013299;28;20173;-71
2022/04/02 05:39:07;;;;;;;1999.90;999.90;;;1.60;99.90;;;;;;5013216;28;20257;-71
2022/04/02 05:41:32;;;;;;;1999.90;999.90;;;1.60;99.90;;;;;;5012789;28;20264;-71
2022/04/02 05:43:58;;;;;;;1999.90;999.90;;;1.60;99.90;;;;;;5012889;28;20671;-71
2022/04/02 05:46:24;;;;;;;1999.90;999.90;;;1.70;99.90;;;;;;5011708;28;20165;-71
2022/04/02 05:48:49;;;;;;;1999.90;999.90;;;1.60;99.90;;;;;;5011701;28;20241;-71
2022/04/02 05:51:15;;;;;;;1999.90;999.90;;;1.70;99.90;;;;;;5012918;28;20185;-71
2022/04/02 05:53:41;;;;;;;1999.90;999.90;;;1.70;99.90;;;;;;5012949;28;20196;-71
2022/04/02 05:56:07;;;;;;;1999.90;999.90;;;1.60;99.90;;;;;;5012621;28;20168;-71
2022/04/02 05:58:32;;;;;;;1999.90;999.90;;;1.70;99.90;;;;;;5012974;28;20709;-71
2022/04/02 06:00:58;;;;;;;1999.90;999.90;;;1.70;99.90;;;;;;5013047;28;20984;-71
2022/04/02 06:03:24;;;;;;;1999.90;999.90;;;1.80;99.90;;;;;;5012677;28;20193;-71
2022/04/02 06:05:50;;;;;;;1999.90;999.90;;;1.90;99.90;;;;;;5012513;28;20408;-71
2022/04/02 06:08:17;;;;;;;1999.90;999.90;;;1.90;99.90;;;;;;5012767;28;20196;-71
2022/04/02 06:10:45;;;;;;;1999.90;999.90;;;2.00;99.90;;;;;;5012593;28;20176;-71
2022/04/02 06:13:12;;;;;;;1999.90;999.90;;;2.00;99.90;;;;;;5012638;28;20173;-71
2022/04/02 06:15:37;;;;;;;1999.90;999.90;;;2.00;99.90;;;;;;5012241;28;20177;-71
2022/04/02 06:18:04;;;;;;;1999.90;999.90;;;2.00;99.90;;;;;;5012513;28;20186;-71
2022/04/02 06:20:29;;;;;;;1999.90;999.90;;;2.00;99.90;;;;;;5012577;28;20173;-71
2022/04/02 06:22:55;;;;;;;1999.90;999.90;;;2.10;99.90;;;;;;5012290;28;20582;-71
2022/04/02 06:25:21;;;;;;;1999.90;999.90;;;2.10;99.90;;;;;;5012109;28;20304;-71
2022/04/02 06:27:48;;;;;;;1999.90;999.90;;;2.10;99.90;;;;;;5012324;28;20910;-71
2022/04/02 06:30:17;;;;;;;1999.90;999.90;;;2.10;99.90;;;;;;5012470;28;20251;-71
2022/04/02 06:32:42;;;;;;;1999.90;999.90;;;2.10;99.90;;;;;;5012306;28;20303;-71
2022/04/02 06:35:09;;;;;;;1999.90;999.90;;;2.10;99.90;;;;;;5012104;28;20701;-71
2022/04/02 06:37:37;;;;;;;1999.90;999.90;;;2.20;99.90;;;;;;5012594;28;20642;-71
2022/04/02 06:40:05;;;;;;;1999.90;999.90;;;2.10;99.90;;;;;;5012322;28;20272;-71
2022/04/02 06:42:31;;;;;;;1999.90;999.90;;;2.10;99.90;;;;;;5012172;28;20710;-71
2022/04/02 06:44:57;;;;;;;1999.90;999.90;;;2.10;99.90;;;;;;5011986;28;20212;-71
2022/04/02 06:47:30;;;;;;;1999.90;999.90;;;2.20;99.90;;;;;;5012126;28;20905;-72
2022/04/02 06:49:57;;;;;;;1999.90;999.90;;;2.20;99.90;;;;;;5012229;28;20172;-72
2022/04/02 06:52:23;;;;;;;1999.90;999.90;;;2.30;99.90;;;;;;5012081;28;20280;-72
2022/04/02 06:54:49;;;;;;;1999.90;999.90;;;2.30;99.90;;;;;;5014101;28;20264;-71
2022/04/02 06:57:19;;;;;;;1999.90;999.90;;;2.30;99.90;;;;;;5016254;28;20201;-71
2022/04/02 06:59:45;;;;;;;1999.90;999.90;;;2.40;99.90;;;;;;5016238;28;20706;-71
2022/04/02 07:02:10;;;;;;;1999.90;999.90;;;2.40;99.90;;;;;;5015919;28;20291;-72
2022/04/02 07:04:36;;;;;;;1999.90;999.90;;;2.40;99.90;;;;;;5015786;28;20247;-72
2022/04/02 07:07:02;;;;;;;1999.90;999.90;;;2.50;99.90;;;;;;5015962;28;20245;-72
2022/04/02 07:09:28;;;;;;;1999.90;999.90;;;2.50;99.90;;;;;;5016046;28;20165;-71
2022/04/02 07:11:55;;;;;;;1999.90;999.90;;;2.60;99.90;;;;;;5015882;28;20434;-72
2022/04/02 07:14:21;;;;;;;1999.90;999.90;;;2.60;99.90;;;;;;5015675;28;20473;-72
2022/04/02 07:16:47;;;;;;;1999.90;999.90;;;2.60;99.90;;;;;;5015878;28;20173;-72
2022/04/02 07:19:13;;;;;;;1999.90;999.90;;;2.60;99.90;;;;;;5015799;28;20533;-72
2022/04/02 07:21:43;;;;;;;1999.90;999.90;;;2.60;99.90;;;;;;5015582;28;20226;-71
2022/04/02 07:24:11;;;;;;;1999.90;999.90;;;2.70;99.90;;;;;;5015347;28;20200;-72
2022/04/02 07:26:38;;;;;;;1999.90;999.90;;;2.80;99.90;;;;;;5015707;28;20161;-72
2022/04/02 07:29:07;;;;;;;1999.90;999.90;;;2.70;99.90;;;;;;5015660;28;20657;-71
2022/04/02 07:31:32;;;;;;;1999.90;999.90;;;2.80;99.90;;;;;;5015486;28;20192;-72
2022/04/02 07:33:59;;;;;;;1999.90;999.90;;;2.80;99.90;;;;;;5015398;28;20203;-74
2022/04/02 07:36:27;;;;;;;1999.90;999.90;;;2.90;99.90;;;;;;5015493;28;20566;-72
2022/04/02 07:39:15;;;;;;;1999.90;999.90;;;2.90;99.90;;;;;;5015434;28;20544;-72
2022/04/02 07:42:00;;;;;;;1999.90;999.90;;;3.00;99.90;;;;;;5015299;28;20193;-73
2022/04/02 07:44:25;;;;;;;1999.90;999.90;;;3.20;99.90;;;;;;5015066;28;20171;-72
2022/04/02 07:46:52;;;;;;;1999.90;999.90;;;3.20;99.90;;;;;;5015241;28;20251;-72
2022/04/02 07:49:22;;;;;;;1999.90;999.90;;;3.30;99.90;;;;;;5015350;28;20268;-71
2022/04/02 07:51:53;;;;;;;1999.90;999.90;;;3.30;99.90;;;;;;5015188;28;20181;-71
2022/04/02 07:54:23;;;;;;;1999.90;999.90;;;3.40;99.90;;;;;;5014961;28;20790;-71
2022/04/02 07:57:01;;;;;;;1999.90;999.90;;;3.40;99.90;;;;;;5015173;28;20180;-71
2022/04/02 07:59:34;;;;;;;1999.90;999.90;;;3.40;99.90;;;;;;5015177;28;20165;-71
2022/04/02 08:02:01;;;;;;;1999.90;999.90;;;3.40;99.90;;;;;;5014942;28;20185;-71
2022/04/02 08:04:28;;;;;;;1999.90;999.90;;;3.40;99.90;;;;;;5014584;28;20256;-72
2022/04/02 08:06:54;;;;;;;1999.90;999.90;;;3.50;99.90;;;;;;5014898;28;20252;-73
2022/04/02 08:09:21;;;;;;;1999.90;999.90;;;3.40;99.90;;;;;;5014910;28;20165;-71
2022/04/02 08:11:50;;;;;;;1999.90;999.90;;;3.30;99.90;;;;;;5014521;28;20280;-71
2022/04/02 08:14:18;;;;;;;1999.90;999.90;;;3.40;99.90;;;;;;5010115;28;20203;-72
2022/04/02 08:16:44;;;;;;;1999.90;999.90;;;3.30;99.90;;;;;;5014329;28;20169;-73
2022/04/02 08:19:10;;;;;;;1999.90;999.90;;;3.40;99.90;;;;;;5014323;28;20426;-73
2022/04/02 08:21:37;;;;;;;1999.90;999.90;;;3.50;99.90;;;;;;5013733;28;20263;-71
2022/04/02 08:24:03;;;;;;;1999.90;999.90;;;3.50;99.90;;;;;;5013888;28;20196;-72
2022/04/02 08:26:28;;;;;;;1999.90;999.90;;;3.40;99.90;;;;;;5014129;28;20252;-72
2022/04/02 08:29:17;;;;;;;1999.90;999.90;;;3.50;99.90;;;;;;5013641;28;20451;-72
2022/04/02 08:31:44;;;;;;;1999.90;999.90;;;3.40;99.90;;;;;;5013916;28;20650;-72
2022/04/02 08:34:20;;;;;;;1999.90;999.90;;;3.50;99.90;;;;;;5013754;28;20167;-72
2022/04/02 08:36:53;;;;;;;1999.90;999.90;;;3.50;99.90;;;;;;5013593;28;20169;-71
2022/04/02 08:39:43;;;;;;;1999.90;999.90;;;3.60;99.90;;;;;;5014048;28;20753;-72
2022/04/02 08:42:36;;;;;;;1999.90;999.90;;;3.50;99.90;;;;;;5013318;28;20207;-72
2022/04/02 08:45:10;;;;;;;1999.90;999.90;;;3.50;99.90;;;;;;5013443;28;20219;-71
2022/04/02 08:48:09;;;;;;;1999.90;999.90;;;3.70;99.90;;;;;;5013928;28;20430;-72
2022/04/02 08:50:44;;;;;;;1999.90;999.90;;;3.80;99.90;;;;;;5013342;28;20363;-72
2022/04/02 08:53:56;;;;;;;1999.90;999.90;;;3.90;99.90;;;;;;5012537;28;20538;-72
2022/04/02 08:56:25;;;;;;;1999.90;999.90;;;3.80;99.90;;;;;;4973383;28;20191;-71
2022/04/02 08:59:01;;;;;;;1999.90;999.90;;;3.90;99.90;;;;;;5013222;28;20400;-72
2022/04/02 09:01:35;;;;;;;1999.90;999.90;;;4.00;99.90;;;;;;5013517;28;20191;-72
2022/04/02 09:04:31;;;;;;;1999.90;999.90;;;4.00;99.90;;;;;;5012952;28;20542;-72
2022/04/02 09:07:18;;;;;;;1999.90;999.90;;;4.20;99.90;;;;;;5013593;28;20165;-72
2022/04/02 09:10:11;;;;;;;1999.90;999.90;;;4.20;99.90;;;;;;5013427;28;20392;-72
2022/04/02 09:13:33;;;;;;;1999.90;999.90;;;4.20;99.90;;;;;;4993180;28;20209;-73
2022/04/02 09:16:06;;;;;;;1999.90;999.90;;;4.30;99.90;;;;;;4913838;29;20180;-72
2022/04/02 09:18:39;;;;;;;1999.90;999.90;;;4.40;99.90;;;;;;4914460;29;20412;-71
2022/04/02 09:21:26;;;;;;;1999.90;999.90;;;4.70;99.90;;;;;;4958951;28;20476;-71
2022/04/02 09:24:02;;;;;;;1999.90;999.90;;;4.80;99.90;;;;;;4996174;28;20460;-72
2022/04/02 09:26:58;;;;;;;1999.90;999.90;;;5.00;99.90;;;;;;4995801;28;20404;-71
2022/04/02 09:29:36;;;;;;;1999.90;999.90;;;5.00;99.90;;;;;;4994814;28;20397;-72
2022/04/02 09:32:17;;;;;;;1999.90;999.90;;;5.00;99.90;;;;;;4993252;28;20437;-72
2022/04/02 09:35:21;;;;;;;1999.90;999.90;;;5.10;99.90;;;;;;4992456;28;20408;-71
2022/04/02 09:38:05;;;;;;;1999.90;999.90;;;5.30;99.90;;;;;;4993516;28;20411;-71
2022/04/02 09:40:43;;;;;;;1999.90;999.90;;;5.30;99.90;;;;;;4993091;28;20547;-71
2022/04/02 09:43:29;;;;;;;1999.90;999.90;;;5.20;99.90;;;;;;4992631;28;20445;-72
2022/04/02 09:46:03;;;;;;;1999.90;999.90;;;5.00;99.90;;;;;;4992735;28;20408;-72
2022/04/02 09:48:50;;;;;;;1999.90;999.90;;;5.00;99.90;;;;;;4993068;28;20405;-72
2022/04/02 09:51:19;;;;;;;1999.90;999.90;;;5.00;99.90;;;;;;4992961;28;20914;-71
2022/04/02 09:54:17;;;;;;;1999.90;999.90;;;4.90;99.90;;;;;;4992841;28;20440;-72
2022/04/02 09:56:50;;;;;;;1999.90;999.90;;;4.70;99.90;;;;;;4981899;28;20424;-73
2022/04/02 09:59:34;;;;;;;1999.90;999.90;;;4.70;99.90;;;;;;4992786;28;20397;-72
2022/04/02 10:02:09;;;;;;;1999.90;999.90;;;4.70;99.90;;;;;;4992409;28;20421;-72
2022/04/02 10:04:40;;;;;;;1999.90;999.90;;;4.70;99.90;;;;;;4992072;28;20770;-73
2022/04/02 10:07:29;;;;;;;1999.90;999.90;;;4.80;99.90;;;;;;4992690;28;20409;-73
2022/04/02 10:09:56;;;;;;;1999.90;999.90;;;4.60;99.90;;;;;;4992748;28;20503;-73
2022/04/02 10:12:26;;;;;;;1999.90;999.90;;;4.70;99.90;;;;;;4992095;28;20436;-73
2022/04/02 10:14:59;;;;;;;1999.90;999.90;;;4.70;99.90;;;;;;4992213;28;20224;-72
2022/04/02 10:17:29;;;;;;;1999.90;999.90;;;4.70;99.90;;;;;;4992813;28;20172;-72
2022/04/02 10:19:59;;;;;;;1999.90;999.90;;;4.80;99.90;;;;;;4992035;28;20177;-72
2022/04/02 10:22:44;;;;;;;1999.90;999.90;;;4.90;99.90;;;;;;4992232;28;20469;-72
2022/04/02 10:25:13;;;;;;;1999.90;999.90;;;5.10;99.90;;;;;;4992080;28;20389;-73
2022/04/02 10:27:41;;;;;;;1999.90;999.90;;;5.10;99.90;;;;;;4991994;28;20798;-72
2022/04/02 10:30:14;;;;;;;1999.90;999.90;;;5.20;99.90;;;;;;4992318;28;20750;-73
2022/04/02 10:33:38;;;;;;;1999.90;999.90;;;5.20;99.90;;;;;;4992310;28;20467;-73
2022/04/02 10:35:46;;;;;;;1999.90;999.90;;;5.10;99.90;;;;;;4988784;28;20914;-72
2022/04/02 10:38:24;;;;;;;1999.90;999.90;;;5.30;99.90;;;;;;4992284;28;20409;-73
2022/04/02 10:40:52;;;;;;;1999.90;999.90;;;5.40;99.90;;;;;;4991761;28;20448;-73
2022/04/02 10:43:24;;;;;;;1999.90;999.90;;;5.50;99.90;;;;;;4992030;28;20457;-72
2022/04/02 10:45:50;;;;;;;1999.90;999.90;;;5.60;99.90;;;;;;4991810;28;20448;-72
2022/04/02 10:48:26;;;;;;;1999.90;999.90;;;5.80;99.90;;;;;;4991712;28;20927;-72
2022/04/02 10:50:54;;;;;;;1999.90;999.90;;;5.90;99.90;;;;;;4992090;28;20777;-72
2022/04/02 10:53:22;;;;;;;1999.90;999.90;;;6.20;99.90;;;;;;4992194;28;20412;-72
2022/04/02 10:55:58;;;;;;;1999.90;999.90;;;6.60;99.90;;;;;;4991231;28;20460;-72
2022/04/02 10:58:24;;;;;;;1999.90;999.90;;;6.90;99.90;;;;;;4992010;28;20397;-72
2022/04/02 11:00:57;;;;;;;1999.90;999.90;;;6.90;99.90;;;;;;4991665;28;20478;-71
2022/04/02 11:03:36;;;;;;;1999.90;999.90;;;6.90;99.90;;;;;;4991643;28;20456;-71
2022/04/02 11:06:01;;;;;;;1999.90;999.90;;;6.80;99.90;;;;;;4991504;28;20404;-71
2022/04/02 11:08:31;;;;;;;1999.90;999.90;;;6.90;99.90;;;;;;4990680;28;20425;-71
2022/04/02 11:11:17;;;;;;;1999.90;999.90;;;7.00;99.90;;;;;;4991462;28;20903;-71
2022/04/02 11:13:44;;;;;;;1999.90;999.90;;;6.90;99.90;;;;;;4991861;28;20404;-71
2022/04/02 11:16:16;;;;;;;1999.90;999.90;;;7.00;99.90;;;;;;4991693;28;20749;-71
2022/04/02 11:19:53;;;;;;;1999.90;999.90;;;6.80;99.90;;;;;;4991195;28;20413;-72
2022/04/02 11:21:38;;;;;;;1999.90;999.90;;;6.60;99.90;;;;;;4991566;28;20789;-70
2022/04/02 11:24:11;;;;;;;1999.90;999.90;;;6.60;99.90;;;;;;4991583;28;20996;-71
2022/04/02 11:26:42;;;;;;;1999.90;999.90;;;6.70;99.90;;;;;;4991387;28;20914;-71
2022/04/02 11:29:12;;;;;;;1999.90;999.90;;;6.60;99.90;;;;;;4992030;28;20415;-71
2022/04/02 11:31:44;;;;;;;1999.90;999.90;;;6.50;99.90;;;;;;4991665;28;20436;-71
2022/04/02 11:34:12;;;;;;;1999.90;999.90;;;6.60;99.90;;;;;;4991092;28;20433;-70
2022/04/02 11:36:37;;;;;;;1999.90;999.90;;;6.80;99.90;;;;;;4991856;28;20429;-70
2022/04/02 11:39:10;;;;;;;1999.90;999.90;;;6.70;99.90;;;;;;4991770;28;20480;-71
2022/04/02 11:41:40;;;;;;;1999.90;999.90;;;6.80;99.90;;;;;;4994284;28;20194;-70
2022/04/02 11:44:11;;;;;;;1999.90;999.90;;;6.70;99.90;;;;;;4994938;28;20490;-71
2022/04/02 11:47:00;;;;;;;1999.90;999.90;;;6.80;99.90;;;;;;4995336;28;21012;-70
2022/04/02 11:49:31;;;;;;;1999.90;999.90;;;7.00;99.90;;;;;;4994982;28;20484;-71
2022/04/02 11:52:04;;;;;;;1999.90;999.90;;;7.30;99.90;;;;;;4995299;28;20448;-71
2022/04/02 11:54:31;;;;;;;1999.90;999.90;;;7.40;99.90;;;;;;4994676;28;20835;-73
2022/04/02 11:57:12;;;;;;;1999.90;999.90;;;6.90;99.90;;;;;;4997021;28;20480;-73
2022/04/02 11:59:52;;;;;;;1999.90;999.90;;;7.00;99.90;;;;;;4996373;28;20917;-73
2022/04/02 12:02:37;;;;;;;1999.90;999.90;;;7.30;99.90;;;;;;4994780;28;20569;-73
2022/04/02 12:05:05;;;;;;;1999.90;999.90;;;7.60;99.90;;;;;;4997245;28;20428;-73
2022/04/02 12:07:45;;;;;;;1999.90;999.90;;;8.00;99.90;;;;;;4996971;28;20410;-73
2022/04/02 12:10:27;;;;;;;1999.90;999.90;;;8.10;99.90;;;;;;4996581;28;20455;-73
2022/04/02 12:12:56;;;;;;;1999.90;999.90;;;8.00;99.90;;;;;;4996801;28;20464;-73
2022/04/02 12:15:22;;;;;;;1999.90;999.90;;;7.70;99.90;;;;;;4996138;28;20448;-73
2022/04/02 12:17:59;;;;;;;1999.90;999.90;;;7.50;99.90;;;;;;4995807;28;20816;-73
2022/04/02 12:20:28;;;;;;;1999.90;999.90;;;7.30;99.90;;;;;;4996403;28;20220;-73
2022/04/02 12:23:11;;;;;;;1999.90;999.90;;;7.20;99.90;;;;;;4995934;28;20523;-73
2022/04/02 12:25:38;;;;;;;1999.90;999.90;;;6.90;99.90;;;;;;4995898;28;20841;-73
2022/04/02 12:28:17;;;;;;;1999.90;999.90;;;6.80;99.90;;;;;;4994626;28;20412;-73